Time;durP1;ratioP1;P1;durP2;ratioP2;P2;SDS_P1;SDS_P2;PMS_P1;PMS_P2;Temp;Humidity;BMP_temperature;BMP_pressure;BME280_temperature;BME280_humidity;BME280_pressure;Samples;Min_cycle;Max_cycle;Signal;HPM_P1;HPM_P2
2023/07/25 00:02:04;;;;;;;3.37;1.93;;;22.20;79.50;;;;;;5002871;28;20497;-84
2023/07/25 00:04:32;;;;;;;2.60;2.40;;;22.20;79.50;;;;;;5019004;28;20230;-85
2023/07/25 00:06:58;;;;;;;3.27;2.40;;;22.20;79.50;;;;;;5003011;28;20774;-85
2023/07/25 00:09:26;;;;;;;2.73;2.53;;;22.20;79.40;;;;;;5036688;28;20993;-85
2023/07/25 00:11:52;;;;;;;2.67;2.47;;;22.20;79.40;;;;;;5036595;28;20540;-85
2023/07/25 00:14:18;;;;;;;2.67;2.37;;;22.20;79.40;;;;;;5019360;28;20207;-85
2023/07/25 00:16:46;;;;;;;2.60;2.40;;;22.20;79.40;;;;;;5019350;28;20173;-86
2023/07/25 00:19:15;;;;;;;3.13;2.50;;;22.20;79.40;;;;;;5003501;28;20743;-86
2023/07/25 00:21:43;;;;;;;2.60;2.40;;;22.20;79.30;;;;;;5035342;28;20424;-84
2023/07/25 00:24:09;;;;;;;4.53;2.53;;;22.20;79.30;;;;;;5002161;28;20192;-85
2023/07/25 00:26:35;;;;;;;2.67;2.47;;;22.20;79.50;;;;;;5002832;28;20890;-86
2023/07/25 00:29:05;;;;;;;2.70;2.50;;;22.20;79.30;;;;;;5002661;28;20177;-86
2023/07/25 00:31:34;;;;;;;3.03;2.40;;;22.10;79.20;;;;;;4986447;28;20447;-83
2023/07/25 00:34:00;;;;;;;3.20;2.50;;;22.10;79.20;;;;;;5002318;28;20449;-85
2023/07/25 00:36:26;;;;;;;2.70;2.47;;;22.10;79.20;;;;;;5002558;28;20430;-86
2023/07/25 00:38:52;;;;;;;2.43;2.23;;;22.10;79.10;;;;;;5002600;28;20446;-84
2023/07/25 00:41:18;;;;;;;3.50;2.30;;;22.10;79.20;;;;;;5002798;28;20669;-85
2023/07/25 00:43:44;;;;;;;2.37;2.20;;;22.10;79.10;;;;;;4987780;28;20517;-84
2023/07/25 00:46:12;;;;;;;2.57;2.37;;;22.10;79.40;;;;;;4988606;28;20632;-85
2023/07/25 00:48:38;;;;;;;2.90;2.20;;;22.10;79.10;;;;;;5004808;28;20479;-85
2023/07/25 00:51:05;;;;;;;3.00;2.53;;;22.10;79.10;;;;;;4991701;28;20538;-84
2023/07/25 00:53:33;;;;;;;2.57;2.37;;;22.10;79.10;;;;;;5025065;28;20813;-86
2023/07/25 00:56:01;;;;;;;3.63;2.70;;;22.10;79.10;;;;;;5029859;28;20544;-85
2023/07/25 00:58:29;;;;;;;5.30;2.80;;;22.10;79.10;;;;;;5025402;28;20498;-85
2023/07/25 01:01:08;;;;;;;2.43;2.23;;;22.10;79.20;;;;;;5019326;28;20449;-85
2023/07/25 01:03:38;;;;;;;2.30;2.10;;;22.10;79.20;;;;;;5018514;28;20505;-85
2023/07/25 01:06:11;;;;;;;2.80;2.50;;;22.10;79.20;;;;;;5002452;28;20402;-85
2023/07/25 01:08:56;;;;;;;2.70;2.50;;;22.00;79.20;;;;;;4998379;28;20450;-84
2023/07/25 01:11:23;;;;;;;2.90;2.50;;;22.00;79.20;;;;;;5017578;28;20763;-85
2023/07/25 01:13:50;;;;;;;3.53;2.23;;;22.00;79.20;;;;;;5005381;28;20430;-86
2023/07/25 01:16:27;;;;;;;3.00;2.50;;;22.00;79.20;;;;;;5021293;28;20778;-85
2023/07/25 01:18:57;;;;;;;3.63;2.40;;;22.00;79.20;;;;;;5018277;28;20427;-86
2023/07/25 01:21:25;;;;;;;2.67;2.20;;;22.00;79.20;;;;;;5001534;28;20769;-85
2023/07/25 01:23:51;;;;;;;2.57;2.33;;;22.00;79.20;;;;;;4986528;28;20438;-85
2023/07/25 01:26:20;;;;;;;3.20;2.50;;;22.00;79.20;;;;;;4999219;28;20463;-85
2023/07/25 01:28:46;;;;;;;2.83;2.53;;;22.00;79.20;;;;;;4983418;28;20423;-85
2023/07/25 01:31:12;;;;;;;3.10;2.80;;;22.00;79.20;;;;;;5000637;28;20431;-85
2023/07/25 01:33:38;;;;;;;3.00;2.53;;;22.00;79.20;;;;;;5001703;28;20518;-85
2023/07/25 01:36:09;;;;;;;3.73;2.37;;;22.00;79.30;;;;;;4985043;28;20858;-85
2023/07/25 01:38:37;;;;;;;2.80;2.60;;;21.90;79.10;;;;;;5017767;28;20444;-85
2023/07/25 01:41:03;;;;;;;2.67;2.47;;;21.90;79.20;;;;;;5017697;28;20427;-86
2023/07/25 01:43:29;;;;;;;3.10;2.40;;;21.90;79.20;;;;;;5018600;28;20430;-86
2023/07/25 01:45:58;;;;;;;5.90;2.37;;;21.90;80.00;;;;;;5001647;28;20603;-85
2023/07/25 01:48:26;;;;;;;3.50;2.43;;;21.90;79.90;;;;;;5002502;28;20446;-85
2023/07/25 01:50:52;;;;;;;3.40;2.50;;;21.90;79.10;;;;;;4985067;28;20525;-85
2023/07/25 01:53:18;;;;;;;2.67;2.47;;;21.90;79.10;;;;;;5018998;28;20446;-86
2023/07/25 01:55:47;;;;;;;3.07;2.77;;;21.90;79.10;;;;;;4984885;28;20223;-86
2023/07/25 01:58:14;;;;;;;2.73;2.53;;;21.90;79.00;;;;;;4981983;28;20409;-85
2023/07/25 02:00:40;;;;;;;2.70;2.50;;;21.90;78.90;;;;;;4965659;28;20481;-85
2023/07/25 02:03:09;;;;;;;5.50;2.70;;;21.90;78.90;;;;;;5033308;28;20423;-85
2023/07/25 02:05:37;;;;;;;2.63;2.43;;;21.90;78.90;;;;;;4984606;28;20909;-85
2023/07/25 02:08:06;;;;;;;2.80;2.60;;;21.90;78.90;;;;;;5000788;28;20458;-85
2023/07/25 02:10:32;;;;;;;3.33;3.03;;;21.90;78.90;;;;;;4984418;28;20442;-85
2023/07/25 02:13:00;;;;;;;2.80;2.60;;;21.80;78.70;;;;;;5001315;28;20756;-86
2023/07/25 02:15:26;;;;;;;3.00;2.40;;;21.90;78.90;;;;;;5000785;28;20758;-84
2023/07/25 02:17:53;;;;;;;2.83;2.60;;;21.80;78.70;;;;;;4984693;28;20450;-84
2023/07/25 02:20:21;;;;;;;3.00;2.40;;;21.80;78.70;;;;;;5000869;28;20512;-85
2023/07/25 02:22:46;;;;;;;4.53;3.10;;;21.80;79.50;;;;;;5000227;28;20906;-85
2023/07/25 02:25:12;;;;;;;2.80;2.50;;;21.80;78.70;;;;;;5016631;28;20519;-85
2023/07/25 02:27:38;;;;;;;2.83;2.50;;;21.80;78.60;;;;;;5000978;28;20407;-85
2023/07/25 02:30:07;;;;;;;3.17;2.90;;;21.80;78.60;;;;;;5034162;28;20489;-85
2023/07/25 02:32:33;;;;;;;3.43;2.70;;;21.80;78.60;;;;;;5000708;28;20190;-83
2023/07/25 02:35:01;;;;;;;4.97;2.40;;;21.80;78.60;;;;;;4983950;28;20523;-85
2023/07/25 02:37:27;;;;;;;2.90;2.50;;;21.80;79.30;;;;;;5000889;28;20211;-85
2023/07/25 02:39:57;;;;;;;2.50;2.30;;;21.80;78.50;;;;;;5034098;28;20900;-85
2023/07/25 02:42:54;;;;;;;3.13;2.83;;;21.70;78.50;;;;;;5000850;28;20424;-84
2023/07/25 02:45:20;;;;;;;2.67;2.47;;;21.70;78.30;;;;;;4987375;28;20442;-85
2023/07/25 02:47:46;;;;;;;3.07;2.77;;;21.70;78.30;;;;;;5004605;28;20434;-84
2023/07/25 02:50:17;;;;;;;2.70;2.50;;;21.70;78.40;;;;;;5004474;28;20190;-85
2023/07/25 02:52:45;;;;;;;3.20;3.00;;;21.70;78.40;;;;;;5004365;28;20184;-86
2023/07/25 02:55:13;;;;;;;2.67;2.47;;;21.70;78.40;;;;;;5020267;28;20466;-85
2023/07/25 02:57:39;;;;;;;3.87;2.67;;;21.70;78.40;;;;;;5020496;28;20938;-85
2023/07/25 03:00:07;;;;;;;3.00;2.60;;;21.70;78.30;;;;;;5020491;28;20521;-86
2023/07/25 03:02:33;;;;;;;4.93;3.20;;;21.70;78.30;;;;;;5020769;28;20422;-86
2023/07/25 03:05:01;;;;;;;3.17;2.97;;;21.70;78.30;;;;;;4988789;28;20427;-85
2023/07/25 03:07:29;;;;;;;4.90;2.90;;;21.60;78.10;;;;;;5004132;28;20484;-85
2023/07/25 03:09:55;;;;;;;4.40;2.97;;;21.60;78.20;;;;;;5004024;28;20466;-84
2023/07/25 03:12:24;;;;;;;8.50;2.87;;;21.60;78.10;;;;;;4987514;28;20549;-86
2023/07/25 03:14:50;;;;;;;3.50;2.70;;;21.60;78.10;;;;;;4987833;28;20470;-85
2023/07/25 03:17:16;;;;;;;3.20;2.90;;;21.60;78.10;;;;;;5019929;28;20540;-85
2023/07/25 03:19:42;;;;;;;3.30;2.60;;;21.60;78.10;;;;;;4988310;28;20199;-86
2023/07/25 03:22:08;;;;;;;3.70;2.90;;;21.60;78.10;;;;;;4987665;28;20426;-85
2023/07/25 03:24:34;;;;;;;4.00;2.77;;;21.60;78.10;;;;;;5003798;28;20470;-86
2023/07/25 03:27:00;;;;;;;2.90;2.70;;;21.60;78.10;;;;;;5019970;28;20492;-85
2023/07/25 03:29:28;;;;;;;2.90;2.57;;;21.50;78.00;;;;;;5019802;28;20274;-85
2023/07/25 03:31:54;;;;;;;3.10;2.80;;;21.50;77.90;;;;;;4987588;28;20443;-84
2023/07/25 03:34:20;;;;;;;3.43;2.90;;;21.50;78.00;;;;;;5003895;28;20203;-84
2023/07/25 03:36:46;;;;;;;3.27;3.07;;;21.50;78.80;;;;;;5003535;28;20235;-84
2023/07/25 03:39:14;;;;;;;3.10;2.80;;;21.50;78.00;;;;;;5019964;28;20429;-82
2023/07/25 03:41:42;;;;;;;2.70;2.50;;;21.50;78.10;;;;;;5004211;28;20936;-85
2023/07/25 03:44:16;;;;;;;2.83;2.63;;;21.50;78.00;;;;;;5019778;28;20433;-85
2023/07/25 03:46:45;;;;;;;3.10;2.90;;;21.50;78.00;;;;;;5019666;28;20400;-85
2023/07/25 03:49:12;;;;;;;3.20;2.50;;;21.50;78.00;;;;;;5020262;28;20501;-86
2023/07/25 03:51:43;;;;;;;2.70;2.50;;;21.50;78.00;;;;;;5019995;28;21017;-85
2023/07/25 03:54:11;;;;;;;2.70;2.50;;;21.50;78.10;;;;;;5003186;28;20537;-85
2023/07/25 03:56:39;;;;;;;3.13;2.90;;;21.40;78.00;;;;;;5001332;28;20419;-85
2023/07/25 03:59:10;;;;;;;3.50;3.07;;;21.40;78.00;;;;;;4986026;28;20829;-84
2023/07/25 04:01:40;;;;;;;3.40;2.60;;;21.40;78.00;;;;;;4982654;28;20500;-85
2023/07/25 04:04:06;;;;;;;3.53;3.10;;;21.40;78.10;;;;;;4982485;28;20428;-86
2023/07/25 04:06:35;;;;;;;3.17;2.97;;;21.40;78.10;;;;;;4999576;28;20428;-85
2023/07/25 04:09:01;;;;;;;3.20;3.00;;;21.40;78.10;;;;;;4982944;28;20449;-85
2023/07/25 04:11:27;;;;;;;3.37;2.77;;;21.40;78.10;;;;;;4988323;28;20740;-85
2023/07/25 04:13:53;;;;;;;3.07;2.77;;;21.40;78.10;;;;;;4982614;28;20283;-86
2023/07/25 04:16:18;;;;;;;2.63;2.43;;;21.40;78.10;;;;;;4998392;28;20881;-86
2023/07/25 04:18:44;;;;;;;3.43;2.70;;;21.40;78.10;;;;;;4984186;28;20290;-85
2023/07/25 04:21:10;;;;;;;2.83;2.60;;;21.40;78.10;;;;;;4996334;28;20433;-86
2023/07/25 04:23:39;;;;;;;2.80;2.60;;;21.30;78.00;;;;;;4988278;28;20183;-85
2023/07/25 04:26:12;;;;;;;3.10;2.90;;;21.30;78.00;;;;;;4986842;28;20426;-85
2023/07/25 04:28:38;;;;;;;3.07;2.77;;;21.30;78.00;;;;;;5002003;28;20548;-84
2023/07/25 04:31:04;;;;;;;3.00;2.80;;;21.30;78.00;;;;;;5001443;28;20525;-85
2023/07/25 04:33:32;;;;;;;3.30;3.00;;;21.30;78.00;;;;;;5017562;28;20283;-86
2023/07/25 04:35:58;;;;;;;3.20;2.90;;;21.30;78.10;;;;;;4985561;28;20931;-86
2023/07/25 04:38:24;;;;;;;3.20;3.00;;;21.30;78.10;;;;;;5017873;28;20180;-85
2023/07/25 04:40:50;;;;;;;3.30;2.90;;;21.30;78.00;;;;;;5008707;28;20529;-85
2023/07/25 04:43:20;;;;;;;3.50;3.20;;;21.30;78.00;;;;;;5010996;28;20184;-86
2023/07/25 04:45:48;;;;;;;3.03;2.83;;;21.30;78.10;;;;;;5001459;28;20454;-85
2023/07/25 04:48:14;;;;;;;3.30;3.03;;;21.30;78.00;;;;;;5001600;28;20436;-85
2023/07/25 04:50:42;;;;;;;7.27;3.20;;;21.30;78.00;;;;;;5035194;28;20442;-84
2023/07/25 04:53:11;;;;;;;3.50;2.97;;;21.30;78.10;;;;;;5001612;28;20509;-84
2023/07/25 04:55:37;;;;;;;2.90;2.70;;;21.20;78.00;;;;;;4985068;28;20307;-84
2023/07/25 04:58:05;;;;;;;3.20;2.90;;;21.20;78.00;;;;;;5002337;28;20437;-84
2023/07/25 05:00:31;;;;;;;4.07;3.40;;;21.20;78.00;;;;;;4985894;28;20435;-85
2023/07/25 05:03:00;;;;;;;2.83;2.60;;;21.20;78.00;;;;;;5002183;28;20432;-85
2023/07/25 05:05:28;;;;;;;4.23;3.33;;;21.20;78.10;;;;;;5035730;28;20522;-85
2023/07/25 05:07:54;;;;;;;3.93;3.27;;;21.20;78.10;;;;;;5012249;28;20207;-85
2023/07/25 05:10:22;;;;;;;4.47;3.10;;;21.20;78.10;;;;;;4982694;28;20435;-85
2023/07/25 05:12:50;;;;;;;7.27;3.57;;;21.20;78.90;;;;;;5000956;28;20428;-84
2023/07/25 05:15:17;;;;;;;3.40;3.20;;;21.20;78.10;;;;;;5018304;28;20567;-84
2023/07/25 05:17:43;;;;;;;2.87;2.67;;;21.20;78.10;;;;;;5001188;28;20434;-84
2023/07/25 05:20:09;;;;;;;3.33;3.07;;;21.20;78.10;;;;;;5017601;28;20593;-84
2023/07/25 05:22:40;;;;;;;3.50;3.10;;;21.20;78.20;;;;;;5000683;28;20470;-83
2023/07/25 05:25:07;;;;;;;5.80;3.23;;;21.20;78.10;;;;;;5001443;28;20432;-85
2023/07/25 05:27:36;;;;;;;3.70;3.30;;;21.10;78.00;;;;;;5001871;28;20461;-84
2023/07/25 05:30:03;;;;;;;3.50;2.87;;;21.10;78.00;;;;;;4993780;28;20434;-85
2023/07/25 05:32:31;;;;;;;4.00;3.37;;;21.10;78.10;;;;;;4962144;28;20533;-84
2023/07/25 05:34:59;;;;;;;4.00;3.10;;;21.10;78.00;;;;;;4994684;28;20499;-84
2023/07/25 05:37:36;;;;;;;3.20;2.90;;;21.10;78.00;;;;;;4976594;28;20547;-84
2023/07/25 05:40:08;;;;;;;6.17;3.10;;;21.10;78.00;;;;;;4976178;28;20970;-84
2023/07/25 05:42:37;;;;;;;3.30;2.67;;;21.10;78.10;;;;;;4977662;28;20432;-84
2023/07/25 05:45:05;;;;;;;3.20;2.73;;;21.10;78.10;;;;;;4977201;28;20446;-84
2023/07/25 05:47:34;;;;;;;3.60;3.30;;;21.10;78.20;;;;;;4961134;28;20441;-84
2023/07/25 05:50:01;;;;;;;4.03;2.97;;;21.10;78.20;;;;;;4973304;28;20538;-84
2023/07/25 05:52:27;;;;;;;4.23;2.80;;;21.10;78.20;;;;;;4990214;28;20475;-85
2023/07/25 05:54:53;;;;;;;5.53;2.97;;;21.10;78.20;;;;;;5006276;28;20472;-85
2023/07/25 05:57:22;;;;;;;3.77;2.90;;;21.10;78.20;;;;;;4951476;28;20256;-85
2023/07/25 05:59:48;;;;;;;8.70;3.53;;;21.10;78.10;;;;;;4975412;28;20456;-84
2023/07/25 06:02:16;;;;;;;3.33;3.03;;;21.10;78.20;;;;;;5017706;28;20818;-85
2023/07/25 06:04:45;;;;;;;3.20;2.90;;;21.10;78.10;;;;;;5020334;28;20473;-89
2023/07/25 06:07:15;;;;;;;3.63;3.33;;;21.10;78.10;;;;;;5014168;28;20760;-92
2023/07/25 06:09:41;;;;;;;6.00;2.87;;;21.10;78.00;;;;;;4965927;28;20463;-92
2023/07/25 06:12:08;;;;;;;4.30;3.37;;;21.10;78.00;;;;;;4965969;28;20449;-91
2023/07/25 06:14:35;;;;;;;5.13;3.20;;;21.00;78.00;;;;;;4997956;28;20536;-94
2023/07/25 06:17:01;;;;;;;4.50;3.83;;;21.00;77.90;;;;;;4966115;28;20758;-92
2023/07/25 06:19:27;;;;;;;4.27;2.80;;;21.10;78.00;;;;;;4965065;28;20423;-93
2023/07/25 06:21:53;;;;;;;5.03;3.60;;;21.00;77.80;;;;;;4966134;28;20442;-94
2023/07/25 06:24:19;;;;;;;4.23;3.40;;;21.00;77.70;;;;;;4965958;28;21181;-93
2023/07/25 06:26:45;;;;;;;3.90;3.33;;;21.00;77.70;;;;;;4966012;28;20431;-92
2023/07/25 06:29:11;;;;;;;6.10;3.20;;;21.00;77.60;;;;;;4965629;28;20425;-91
2023/07/25 06:31:40;;;;;;;4.50;3.90;;;21.00;77.60;;;;;;4981752;28;20510;-93
2023/07/25 06:34:15;;;;;;;3.93;3.47;;;21.00;77.60;;;;;;4966635;28;20447;-94
2023/07/25 06:36:41;;;;;;;3.47;3.03;;;21.00;77.50;;;;;;4968267;28;21224;-93
2023/07/25 06:39:07;;;;;;;3.93;3.50;;;21.00;77.60;;;;;;4985172;28;20429;-92
2023/07/25 06:41:34;;;;;;;5.33;3.33;;;21.00;77.60;;;;;;4985062;28;20773;-91
2023/07/25 06:44:02;;;;;;;4.00;3.20;;;21.00;77.50;;;;;;4985468;28;20545;-90
2023/07/25 06:46:28;;;;;;;5.33;3.27;;;21.00;77.50;;;;;;4984846;28;20596;-90
2023/07/25 06:48:54;;;;;;;3.80;3.50;;;21.00;77.50;;;;;;5017588;28;20429;-90
2023/07/25 06:51:20;;;;;;;3.97;3.63;;;21.00;77.40;;;;;;5016984;28;20450;-91
2023/07/25 06:53:46;;;;;;;4.23;3.73;;;21.00;77.50;;;;;;5000650;28;20443;-90
2023/07/25 06:56:12;;;;;;;6.60;3.43;;;21.00;77.30;;;;;;5017100;28;20508;-91
2023/07/25 06:58:38;;;;;;;3.63;3.20;;;21.00;77.30;;;;;;5000838;28;20813;-91
2023/07/25 07:01:05;;;;;;;4.10;3.30;;;21.00;77.20;;;;;;5000474;28;20483;-90
2023/07/25 07:03:31;;;;;;;4.17;3.50;;;21.00;77.10;;;;;;5000631;28;20480;-90
2023/07/25 07:05:57;;;;;;;4.50;3.23;;;21.00;77.10;;;;;;4984561;28;20753;-90
2023/07/25 07:08:23;;;;;;;5.27;3.70;;;21.00;77.10;;;;;;5001078;28;20502;-91
2023/07/25 07:10:53;;;;;;;4.13;3.73;;;21.00;77.10;;;;;;5000544;28;20882;-90
2023/07/25 07:13:20;;;;;;;3.63;3.33;;;21.00;77.00;;;;;;5000526;28;20539;-93
2023/07/25 07:15:46;;;;;;;4.60;3.57;;;21.00;77.00;;;;;;4984768;28;20462;-92
2023/07/25 07:18:15;;;;;;;5.57;3.97;;;21.00;77.00;;;;;;4984815;28;20422;-87
2023/07/25 07:20:48;;;;;;;6.00;4.07;;;21.00;76.90;;;;;;5000456;28;20431;-90
2023/07/25 07:23:15;;;;;;;5.17;3.70;;;21.00;76.70;;;;;;4984462;28;20541;-90
2023/07/25 07:25:44;;;;;;;4.97;4.37;;;21.00;76.80;;;;;;4985155;28;20781;-90
2023/07/25 07:28:10;;;;;;;4.50;3.90;;;21.00;76.70;;;;;;4984711;28;20533;-90
2023/07/25 07:30:36;;;;;;;9.90;4.60;;;21.10;76.70;;;;;;5001866;28;20516;-91
2023/07/25 07:33:02;;;;;;;5.13;4.60;;;21.10;76.80;;;;;;4988131;28;20529;-90
2023/07/25 07:35:28;;;;;;;5.10;4.20;;;21.00;76.60;;;;;;5006168;28;20515;-90
2023/07/25 07:37:54;;;;;;;4.80;3.90;;;21.10;76.60;;;;;;4992119;28;20761;-91
2023/07/25 07:40:20;;;;;;;4.67;4.20;;;21.10;76.50;;;;;;5002351;28;20442;-90
2023/07/25 07:42:46;;;;;;;6.73;4.50;;;21.10;76.50;;;;;;5014027;28;20429;-90
2023/07/25 07:45:12;;;;;;;6.03;4.23;;;21.10;76.40;;;;;;4993561;28;20434;-90
2023/07/25 07:47:38;;;;;;;4.60;4.10;;;21.10;76.40;;;;;;5020752;28;20466;-90
2023/07/25 07:50:05;;;;;;;4.90;4.50;;;21.10;76.30;;;;;;4998180;28;20446;-90
2023/07/25 07:52:40;;;;;;;6.23;3.90;;;21.10;76.30;;;;;;4995188;28;20456;-89
2023/07/25 07:55:09;;;;;;;4.20;3.80;;;21.10;76.20;;;;;;5005555;28;20445;-90
2023/07/25 07:57:43;;;;;;;5.00;3.70;;;21.10;76.20;;;;;;5004086;28;20441;-90
2023/07/25 08:00:10;;;;;;;5.00;4.17;;;21.10;76.10;;;;;;5003617;28;20435;-88
2023/07/25 08:02:39;;;;;;;4.17;3.77;;;21.10;75.90;;;;;;5003948;28;20456;-89
2023/07/25 08:05:06;;;;;;;6.47;3.40;;;21.10;75.90;;;;;;4987727;28;20804;-90
2023/07/25 08:07:32;;;;;;;6.33;3.67;;;21.10;75.80;;;;;;5009924;28;20520;-89
2023/07/25 08:09:58;;;;;;;5.53;3.83;;;21.10;75.70;;;;;;4987554;28;20434;-90
2023/07/25 08:12:24;;;;;;;5.13;3.93;;;21.10;75.70;;;;;;5003961;28;21040;-90
2023/07/25 08:14:50;;;;;;;5.73;3.73;;;21.10;75.70;;;;;;4987055;28;20816;-90
2023/07/25 08:17:16;;;;;;;4.40;3.70;;;21.10;75.60;;;;;;5036926;28;20596;-91
2023/07/25 08:19:42;;;;;;;3.67;3.30;;;21.10;75.50;;;;;;4987460;28;20426;-90
2023/07/25 08:22:10;;;;;;;6.53;3.83;;;21.10;75.40;;;;;;4987195;28;20441;-89
2023/07/25 08:24:37;;;;;;;6.73;4.03;;;21.10;75.20;;;;;;5003030;28;20440;-90
2023/07/25 08:27:06;;;;;;;5.00;3.60;;;21.10;75.30;;;;;;4987582;28;20452;-90
2023/07/25 08:29:41;;;;;;;7.13;4.07;;;21.10;75.20;;;;;;5003105;28;20427;-91
2023/07/25 08:32:09;;;;;;;4.67;3.90;;;21.10;75.20;;;;;;5002957;28;20975;-90
2023/07/25 08:34:36;;;;;;;3.93;3.53;;;21.10;75.20;;;;;;4986946;28;20470;-89
2023/07/25 08:37:05;;;;;;;4.93;4.00;;;21.10;75.10;;;;;;4986935;28;20432;-90
2023/07/25 08:39:31;;;;;;;7.03;4.07;;;21.10;75.10;;;;;;5003050;28;20488;-89
2023/07/25 08:41:58;;;;;;;4.43;3.60;;;21.20;75.10;;;;;;4985682;28;20435;-89
2023/07/25 08:44:26;;;;;;;4.70;3.87;;;21.20;75.10;;;;;;4987010;28;20483;-90
2023/07/25 08:46:54;;;;;;;5.00;4.17;;;21.10;74.90;;;;;;5036320;28;20418;-89
2023/07/25 08:49:28;;;;;;;4.20;3.80;;;21.20;75.00;;;;;;5002856;28;20920;-89
2023/07/25 08:51:54;;;;;;;5.53;3.60;;;21.20;74.90;;;;;;4986339;28;20495;-90
2023/07/25 08:54:34;;;;;;;4.30;3.93;;;21.10;74.70;;;;;;5002529;28;20448;-88
2023/07/25 08:57:00;;;;;;;4.27;3.67;;;21.10;74.70;;;;;;4986526;28;20422;-88
2023/07/25 08:59:27;;;;;;;4.50;4.10;;;21.20;74.60;;;;;;5002480;28;20740;-90
2023/07/25 09:02:19;;;;;;;8.67;4.00;;;21.20;74.60;;;;;;4986055;28;20557;-90
2023/07/25 09:04:48;;;;;;;5.13;3.70;;;21.20;74.60;;;;;;5002594;28;20437;-90
2023/07/25 09:07:14;;;;;;;5.53;4.27;;;21.20;74.50;;;;;;4987630;28;20431;-90
2023/07/25 09:09:40;;;;;;;4.87;3.60;;;21.20;74.40;;;;;;5007827;28;20400;-89
2023/07/25 09:12:07;;;;;;;3.67;3.37;;;21.20;74.40;;;;;;4982795;28;20662;-89
2023/07/25 09:14:36;;;;;;;4.63;3.50;;;21.20;74.20;;;;;;4998814;28;20476;-91
2023/07/25 09:17:06;;;;;;;6.23;3.97;;;21.20;74.10;;;;;;4982800;28;20429;-90
2023/07/25 09:19:32;;;;;;;4.17;3.77;;;21.20;74.00;;;;;;4982829;28;20734;-90
2023/07/25 09:21:58;;;;;;;4.20;3.90;;;21.20;73.80;;;;;;4966707;28;20543;-89
2023/07/25 09:24:38;;;;;;;5.23;4.00;;;21.20;73.70;;;;;;4998817;28;20405;-90
2023/07/25 09:27:16;;;;;;;5.10;3.70;;;21.20;73.70;;;;;;4967759;28;20426;-89
2023/07/25 09:29:42;;;;;;;4.30;3.90;;;21.20;73.60;;;;;;5004886;28;20414;-90
2023/07/25 09:32:22;;;;;;;4.43;3.37;;;21.30;73.70;;;;;;4982139;28;20620;-89
2023/07/25 09:35:00;;;;;;;6.00;4.03;;;21.20;73.60;;;;;;4982306;28;20532;-89
2023/07/25 09:37:28;;;;;;;5.37;4.17;;;21.30;73.60;;;;;;4982099;28;20482;-90
2023/07/25 09:39:54;;;;;;;5.73;4.13;;;21.20;73.50;;;;;;4998008;28;20451;-89
2023/07/25 09:42:24;;;;;;;4.07;3.70;;;21.30;73.40;;;;;;4981862;28;20466;-90
2023/07/25 09:44:53;;;;;;;4.00;3.60;;;21.20;73.30;;;;;;4982349;28;20450;-90
2023/07/25 09:47:23;;;;;;;3.77;3.47;;;21.20;73.30;;;;;;4966238;28;20435;-90
2023/07/25 09:49:50;;;;;;;3.93;3.60;;;21.30;73.40;;;;;;4966222;28;20434;-90
2023/07/25 09:52:16;;;;;;;4.80;3.90;;;21.30;73.10;;;;;;4965965;28;20495;-92
2023/07/25 09:54:42;;;;;;;4.03;3.20;;;21.30;73.00;;;;;;4997948;28;20921;-90
2023/07/25 09:57:08;;;;;;;4.77;3.57;;;21.30;72.90;;;;;;4966069;28;20424;-90
2023/07/25 09:59:35;;;;;;;4.40;4.07;;;21.30;72.90;;;;;;4965904;28;20549;-90
2023/07/25 10:02:02;;;;;;;4.10;3.70;;;21.30;72.90;;;;;;4998618;28;20455;-90
2023/07/25 10:04:29;;;;;;;4.17;3.60;;;21.30;72.80;;;;;;5010143;28;20425;-89
2023/07/25 10:06:58;;;;;;;4.90;3.80;;;21.40;72.90;;;;;;5018255;28;20930;-90
2023/07/25 10:09:25;;;;;;;4.70;4.00;;;21.30;72.80;;;;;;4986261;28;20458;-91
2023/07/25 10:11:52;;;;;;;4.20;3.80;;;21.30;72.80;;;;;;4985148;28;20422;-90
2023/07/25 10:14:19;;;;;;;3.57;3.27;;;21.40;72.80;;;;;;5001154;28;20426;-90
2023/07/25 10:16:46;;;;;;;5.63;3.80;;;21.40;72.90;;;;;;4984864;28;20446;-89
2023/07/25 10:19:12;;;;;;;4.63;3.50;;;21.40;72.90;;;;;;4984864;28;20431;-90
2023/07/25 10:21:45;;;;;;;5.03;3.50;;;21.40;72.90;;;;;;4984583;28;20452;-89
2023/07/25 10:24:12;;;;;;;7.33;3.33;;;21.40;72.90;;;;;;4984946;28;20430;-90
2023/07/25 10:26:57;;;;;;;3.97;3.40;;;21.40;72.90;;;;;;5000627;28;20625;-90
2023/07/25 10:29:38;;;;;;;4.70;3.70;;;21.40;73.00;;;;;;5000834;28;20456;-90
2023/07/25 10:32:41;;;;;;;3.73;3.30;;;21.50;73.00;;;;;;5001048;28;20464;-90
2023/07/25 10:35:08;;;;;;;4.73;3.47;;;21.50;73.10;;;;;;5000486;28;20565;-89
2023/07/25 10:37:43;;;;;;;4.27;3.87;;;21.50;72.90;;;;;;5017933;28;20897;-89
2023/07/25 10:40:17;;;;;;;4.97;3.50;;;21.50;72.80;;;;;;5034781;28;20746;-89
2023/07/25 10:42:50;;;;;;;4.60;3.97;;;21.50;72.70;;;;;;5017252;28;20593;-89
2023/07/25 10:45:28;;;;;;;5.23;3.30;;;21.50;72.70;;;;;;5001049;28;20470;-89
2023/07/25 10:47:59;;;;;;;5.37;3.60;;;21.50;72.60;;;;;;4984780;28;20418;-90
2023/07/25 10:50:45;;;;;;;3.40;3.10;;;21.60;72.70;;;;;;4984801;28;20772;-90
2023/07/25 10:53:15;;;;;;;5.40;3.80;;;21.60;72.70;;;;;;5016937;28;20440;-89
2023/07/25 10:56:17;;;;;;;4.40;3.40;;;21.60;72.70;;;;;;4984465;28;20541;-89
2023/07/25 10:59:05;;;;;;;5.90;4.03;;;21.60;72.80;;;;;;4938341;28;20444;-89
2023/07/25 11:01:38;;;;;;;5.23;3.67;;;21.60;72.90;;;;;;4996852;28;20525;-90
2023/07/25 11:04:30;;;;;;;4.07;3.60;;;21.60;72.90;;;;;;5000828;28;20434;-89
2023/07/25 11:07:13;;;;;;;8.83;3.80;;;21.60;73.00;;;;;;5003745;28;20436;-89
2023/07/25 11:09:43;;;;;;;4.70;3.50;;;21.60;73.00;;;;;;5037717;28;20447;-90
2023/07/25 11:12:11;;;;;;;6.20;3.47;;;21.60;72.90;;;;;;4988310;28;20422;-90
2023/07/25 11:14:42;;;;;;;5.43;3.80;;;21.60;72.90;;;;;;4988417;28;20548;-88
2023/07/25 11:17:12;;;;;;;4.83;3.43;;;21.60;72.90;;;;;;5020553;28;20786;-90
2023/07/25 11:19:38;;;;;;;4.10;3.40;;;21.60;72.80;;;;;;5004323;28;20434;-91
2023/07/25 11:22:11;;;;;;;4.83;3.80;;;21.60;72.70;;;;;;5004425;28;20461;-90
2023/07/25 11:24:42;;;;;;;3.60;3.30;;;21.70;72.80;;;;;;4987797;28;20477;-89
2023/07/25 11:27:09;;;;;;;4.83;3.30;;;21.60;72.70;;;;;;5085708;22;21008;-72
2023/07/25 11:29:35;;;;;;;4.47;3.13;;;21.60;72.70;;;;;;5039924;28;20465;-72
2023/07/25 11:32:05;;;;;;;3.60;3.30;;;21.70;72.80;;;;;;5033803;28;20407;-72
2023/07/25 11:34:32;;;;;;;4.53;3.70;;;21.70;72.70;;;;;;5000331;28;20815;-71
2023/07/25 11:37:09;;;;;;;5.13;3.30;;;21.70;72.60;;;;;;5016748;28;20468;-72
2023/07/25 11:39:40;;;;;;;3.90;3.40;;;21.70;72.70;;;;;;5016520;28;20440;-72
2023/07/25 11:42:11;;;;;;;7.80;3.93;;;21.70;72.60;;;;;;5016461;28;20447;-72
2023/07/25 11:44:37;;;;;;;5.20;3.63;;;21.70;72.50;;;;;;5032514;28;21137;-72
2023/07/25 11:47:04;;;;;;;5.50;3.60;;;21.70;72.50;;;;;;5032579;28;20495;-71
2023/07/25 11:49:31;;;;;;;4.03;3.03;;;21.70;72.50;;;;;;5015490;28;20457;-72
2023/07/25 11:52:00;;;;;;;5.90;3.33;;;21.70;72.50;;;;;;5032700;28;20539;-72
2023/07/25 11:54:29;;;;;;;7.20;3.40;;;21.80;72.60;;;;;;5032343;28;20528;-71
2023/07/25 11:56:55;;;;;;;4.10;3.60;;;21.70;72.40;;;;;;5016015;28;20448;-71
2023/07/25 11:59:23;;;;;;;3.13;2.93;;;21.80;72.50;;;;;;5050335;28;20444;-72
2023/07/25 12:01:49;;;;;;;3.83;3.53;;;21.80;72.60;;;;;;5015727;28;20807;-72
2023/07/25 12:04:18;;;;;;;3.50;3.17;;;21.80;72.50;;;;;;5016005;28;20424;-72
2023/07/25 12:06:46;;;;;;;4.17;3.63;;;21.80;72.50;;;;;;5032362;28;20497;-72
2023/07/25 12:09:12;;;;;;;3.63;2.93;;;21.80;72.50;;;;;;5032301;28;20445;-72
2023/07/25 12:11:42;;;;;;;4.93;3.50;;;21.80;72.40;;;;;;5032076;28;20410;-72
2023/07/25 12:14:11;;;;;;;7.87;3.30;;;21.80;72.30;;;;;;5031738;28;20447;-72
2023/07/25 12:16:37;;;;;;;6.20;3.33;;;21.80;72.40;;;;;;5014465;28;20518;-71
2023/07/25 12:19:14;;;;;;;6.23;3.87;;;21.80;72.40;;;;;;4999207;28;20832;-72
2023/07/25 12:21:44;;;;;;;4.07;3.70;;;21.80;72.40;;;;;;5052992;28;20433;-72
2023/07/25 12:24:15;;;;;;;4.00;3.60;;;21.80;72.30;;;;;;5014232;28;20458;-72
2023/07/25 12:26:54;;;;;;;3.47;3.17;;;21.80;72.30;;;;;;5049738;28;20453;-71
2023/07/25 12:29:24;;;;;;;3.63;2.73;;;21.80;72.20;;;;;;5049817;28;20446;-73
2023/07/25 12:31:56;;;;;;;5.50;3.23;;;21.80;72.10;;;;;;5016158;28;20483;-73
2023/07/25 12:34:22;;;;;;;4.60;3.60;;;21.80;71.90;;;;;;5031961;28;20467;-73
2023/07/25 12:36:52;;;;;;;4.40;3.77;;;21.80;71.70;;;;;;5050241;28;20534;-73
2023/07/25 12:39:20;;;;;;;4.50;3.20;;;21.80;71.80;;;;;;5031897;28;20446;-73
2023/07/25 12:41:46;;;;;;;3.30;3.00;;;21.80;71.60;;;;;;5032142;28;20863;-73
2023/07/25 12:44:14;;;;;;;9.10;3.10;;;21.80;71.70;;;;;;5032341;28;20422;-73
2023/07/25 12:46:40;;;;;;;4.17;3.07;;;21.80;71.90;;;;;;5050322;28;20424;-73
2023/07/25 12:49:08;;;;;;;4.03;3.27;;;21.80;71.90;;;;;;5016115;28;20208;-73
2023/07/25 12:51:35;;;;;;;4.43;3.03;;;21.90;71.70;;;;;;5049251;28;20540;-73
2023/07/25 12:54:03;;;;;;;5.63;3.20;;;21.90;71.60;;;;;;5015371;28;20414;-74
2023/07/25 12:56:29;;;;;;;6.57;3.30;;;21.90;71.70;;;;;;5031665;28;20988;-73